createdAt,value
2018-09-06T00:04:46.321Z,14.77
2018-09-06T00:07:25.269Z,14.47
2018-09-06T00:10:09.503Z,15.30
2018-09-06T00:12:44.845Z,15.40
2018-09-06T00:15:22.165Z,14.77
2018-09-06T00:18:06.247Z,14.50
2018-09-06T00:20:42.395Z,13.77
2018-09-06T00:26:07.746Z,15.33
2018-09-06T00:29:02.551Z,14.13
2018-09-06T00:34:37.207Z,15.07
2018-09-06T00:40:12.938Z,14.20
2018-09-06T00:43:00.278Z,12.67
2018-09-06T00:45:46.537Z,13.40
2018-09-06T00:48:21.366Z,13.50
2018-09-06T00:50:53.212Z,14.30
2018-09-06T01:01:33.622Z,13.40
2018-09-06T01:04:12.989Z,14.43
2018-09-06T01:06:52.551Z,13.40
2018-09-06T01:09:48.611Z,13.73
2018-09-06T01:12:38.327Z,14.10
2018-09-06T01:15:28.130Z,14.07
2018-09-06T01:20:48.869Z,14.20
2018-09-06T01:23:28.591Z,13.30
2018-09-06T01:26:02.666Z,13.13
2018-09-06T01:32:35.406Z,14.77
2018-09-06T01:35:12.341Z,16.00
2018-09-06T01:40:47.194Z,14.07
2018-09-06T01:43:28.742Z,13.10
2018-09-06T01:46:33.192Z,14.50
2018-09-06T01:49:17.050Z,14.70
2018-09-06T01:52:01.536Z,13.70
2018-09-06T01:54:41.054Z,14.23
2018-09-06T01:57:17.113Z,14.53
2018-09-06T01:59:57.441Z,15.20
2018-09-06T02:02:36.127Z,13.77
2018-09-06T02:05:12.191Z,14.63
2018-09-06T02:10:30.341Z,14.90
2018-09-06T02:13:09.921Z,14.77
2018-09-06T02:15:50.413Z,14.77
2018-09-06T02:18:27.169Z,14.80
2018-09-06T02:21:05.181Z,14.23
2018-09-06T02:23:44.264Z,14.90
2018-09-06T02:26:18.243Z,14.30
2018-09-06T02:31:49.304Z,14.93
2018-09-06T02:34:31.428Z,16.07
2018-09-06T02:37:03.406Z,13.27
2018-09-06T02:39:42.538Z,15.40
2018-09-06T02:42:19.723Z,14.60
2018-09-06T02:44:58.705Z,14.50
2018-09-06T02:47:33.551Z,14.90
2018-09-06T02:52:59.336Z,15.63
2018-09-06T02:55:38.646Z,14.57
2018-09-06T02:58:15.006Z,14.87
2018-09-06T03:00:53.394Z,15.20
2018-09-06T03:03:28.642Z,16.17
2018-09-06T03:06:01.466Z,14.63
2018-09-06T03:11:24.638Z,15.70
2018-09-06T03:13:59.853Z,14.77
2018-09-06T03:16:44.963Z,15.50
2018-09-06T03:19:30.617Z,15.67
2018-09-06T03:22:13.039Z,16.80
2018-09-06T03:27:21.485Z,14.63
2018-09-06T03:29:55.481Z,15.73
2018-09-06T03:32:31.972Z,15.23
2018-09-06T03:35:08.573Z,15.17
2018-09-06T03:37:49.104Z,16.47
2018-09-06T03:40:21.988Z,15.80
2018-09-06T03:42:58.888Z,16.30
2018-09-06T03:45:37.251Z,16.70
2018-09-06T03:48:10.965Z,16.00
2018-09-06T03:50:44.788Z,16.80
2018-09-06T03:53:21.220Z,16.80
2018-09-06T03:55:52.204Z,15.53
2018-09-06T03:58:23.972Z,17.13
2018-09-06T04:01:00.486Z,16.00
2018-09-06T04:03:33.268Z,16.03
2018-09-06T04:06:09.126Z,16.20
2018-09-06T04:08:57.509Z,16.50
2018-09-06T04:11:36.773Z,15.37
2018-09-06T04:14:13.671Z,16.00
2018-09-06T04:16:46.094Z,15.87
2018-09-06T04:22:18.456Z,17.50
2018-09-06T04:24:53.008Z,17.80
2018-09-06T04:27:25.183Z,16.60
2018-09-06T04:30:04.583Z,17.40
2018-09-06T04:32:47.246Z,17.20
2018-09-06T04:35:33.776Z,16.80
2018-09-06T04:38:10.854Z,17.17
2018-09-06T04:43:24.866Z,15.50
2018-09-06T04:46:02.628Z,18.53
2018-09-06T04:48:52.812Z,17.20
2018-09-06T04:51:31.498Z,13.30
2018-09-06T04:54:14.493Z,16.60
2018-09-06T04:56:51.781Z,17.70
2018-09-06T04:59:32.071Z,17.00
2018-09-06T05:02:15.525Z,17.10
2018-09-06T05:04:56.549Z,16.83
2018-09-06T05:07:37.342Z,17.67
2018-09-06T05:10:12.065Z,15.27
2018-09-06T05:12:54.213Z,15.70
2018-09-06T05:15:31.860Z,16.70
2018-09-06T05:18:08.473Z,15.97
2018-09-06T05:20:42.877Z,16.00
2018-09-06T05:23:23.840Z,16.00
2018-09-06T05:26:07.225Z,16.40
2018-09-06T05:28:42.021Z,15.57
2018-09-06T05:31:17.571Z,16.33
2018-09-06T05:33:53.180Z,15.40
2018-09-06T05:36:27.179Z,16.30
2018-09-06T05:42:09.850Z,16.53
2018-09-06T05:47:29.943Z,17.60
2018-09-06T05:50:10.930Z,17.27
2018-09-06T06:04:20.245Z,16.70
2018-09-06T06:06:55.830Z,16.10
2018-09-06T06:09:49.458Z,14.03
2018-09-06T06:12:36.658Z,15.40
2018-09-06T06:15:06.661Z,16.42
2018-09-06T06:17:37.227Z,17.10
2018-09-06T06:20:05.983Z,16.30
2018-09-06T06:22:34.405Z,13.70
2018-09-06T06:25:02.870Z,15.70
2018-09-06T06:27:31.299Z,14.30
2018-09-06T06:29:59.801Z,15.40
2018-09-06T06:32:28.349Z,14.47
2018-09-06T06:34:57.434Z,14.53
2018-09-06T06:37:26.093Z,13.83
2018-09-06T06:39:54.576Z,15.27
2018-09-06T06:42:23.118Z,15.30
2018-09-06T06:44:52.062Z,15.93
2018-09-06T06:47:21.639Z,13.90
2018-09-06T06:49:50.229Z,14.70
2018-09-06T06:52:18.753Z,14.87
2018-09-06T06:54:47.304Z,15.13
2018-09-06T06:57:15.986Z,14.30
2018-09-06T06:59:45.195Z,13.00
2018-09-06T07:02:14.647Z,14.20
2018-09-06T07:04:43.953Z,15.13
2018-09-06T07:07:13.041Z,13.73
2018-09-06T07:09:41.698Z,13.90
2018-09-06T07:12:10.386Z,14.13
2018-09-06T07:14:39.342Z,12.17
2018-09-06T07:17:08.550Z,13.43
2018-09-06T07:19:37.574Z,12.13
2018-09-06T07:22:06.372Z,12.10
2018-09-06T07:24:34.859Z,12.80
2018-09-06T07:27:03.462Z,12.40
2018-09-06T07:29:32.019Z,11.83
2018-09-06T07:32:00.468Z,12.17
2018-09-06T07:34:29.568Z,14.40
2018-09-06T07:36:58.985Z,13.17
2018-09-06T07:39:27.469Z,12.93
2018-09-06T07:41:55.965Z,12.73
2018-09-06T07:44:24.423Z,11.70
2018-09-06T07:46:53.093Z,13.13
2018-09-06T07:49:21.893Z,12.57
2018-09-06T07:51:50.961Z,12.37
2018-09-06T07:54:19.982Z,10.87
2018-09-06T07:56:48.884Z,12.57
2018-09-06T07:59:17.988Z,12.07
2018-09-06T08:01:46.890Z,11.77
2018-09-06T08:04:16.108Z,11.63
2018-09-06T08:06:44.793Z,11.43
2018-09-06T08:09:13.464Z,11.90
2018-09-06T08:11:42.248Z,11.80
2018-09-06T08:14:11.265Z,11.27
2018-09-06T08:16:40.531Z,11.93
2018-09-06T08:19:09.184Z,10.80
2018-09-06T08:21:38.860Z,11.03
2018-09-06T08:24:08.083Z,11.60
2018-09-06T08:26:37.060Z,10.70
2018-09-06T08:29:06.060Z,10.83
2018-09-06T08:31:34.549Z,10.40
2018-09-06T08:34:03.510Z,10.03
2018-09-06T08:36:32.450Z,10.40
2018-09-06T08:39:01.476Z,10.57
2018-09-06T08:41:30.162Z,9.13
2018-09-06T08:43:58.669Z,11.00
2018-09-06T08:46:27.254Z,10.30
2018-09-06T08:48:57.082Z,10.10
2018-09-06T08:51:26.453Z,9.50
2018-09-06T08:53:55.628Z,9.07
2018-09-06T08:56:25.175Z,9.63
2018-09-06T08:58:54.157Z,8.83
2018-09-06T09:01:27.991Z,10.17
2018-09-06T09:03:57.298Z,9.63
2018-09-06T09:06:26.908Z,9.00
2018-09-06T09:08:56.068Z,8.77
2018-09-06T09:11:25.287Z,9.23
2018-09-06T09:13:54.564Z,9.63
2018-09-06T09:16:23.482Z,9.47
2018-09-06T09:18:52.966Z,9.43
2018-09-06T09:21:22.468Z,9.67
2018-09-06T09:23:51.449Z,8.50
2018-09-06T09:26:20.657Z,8.30
2018-09-06T09:28:50.209Z,8.87
2018-09-06T09:31:20.186Z,9.10
2018-09-06T09:33:49.174Z,9.43
2018-09-06T09:36:18.168Z,8.87
2018-09-06T09:38:47.989Z,8.03
2018-09-06T09:41:17.003Z,7.67
2018-09-06T09:43:46.442Z,8.10
2018-09-06T09:48:43.699Z,8.50
2018-09-06T09:51:13.227Z,8.20
2018-09-06T09:53:42.217Z,7.80
2018-09-06T09:56:11.226Z,8.10
2018-09-06T09:58:40.405Z,8.20
2018-09-06T10:01:09.610Z,8.13
2018-09-06T10:03:43.773Z,7.90
2018-09-06T10:06:21.900Z,9.00
2018-09-06T10:08:56.427Z,7.53
2018-09-06T10:11:26.066Z,8.20
2018-09-06T10:13:55.022Z,8.20
2018-09-06T10:16:23.839Z,8.40
2018-09-06T10:18:52.458Z,7.97
2018-09-06T10:21:20.960Z,8.87
2018-09-06T10:23:49.919Z,7.80
2018-09-06T10:26:19.144Z,8.03
2018-09-06T10:28:48.625Z,9.33
2018-09-06T10:31:18.351Z,9.63
2018-09-06T10:33:47.697Z,9.07
2018-09-06T10:36:17.120Z,8.67
2018-09-06T10:38:46.324Z,9.77
2018-09-06T10:41:15.239Z,9.73
2018-09-06T10:43:44.508Z,7.97
2018-09-06T10:46:13.736Z,8.90
2018-09-06T10:48:42.885Z,8.10
2018-09-06T10:51:11.726Z,8.47
2018-09-06T10:53:40.333Z,8.43
2018-09-06T10:56:08.963Z,8.03
2018-09-06T10:58:38.934Z,8.93
2018-09-06T11:01:13.984Z,8.97
2018-09-06T11:03:42.721Z,8.47
2018-09-06T11:06:11.907Z,7.93
2018-09-06T11:08:41.127Z,7.60
2018-09-06T11:11:10.364Z,8.70
2018-09-06T11:13:39.929Z,8.47
2018-09-06T11:16:09.621Z,8.50
2018-09-06T11:18:38.308Z,8.60
2018-09-06T11:21:07.476Z,7.60
2018-09-06T11:23:36.662Z,8.37
2018-09-06T11:26:05.725Z,9.77
2018-09-06T11:28:35.304Z,9.10
2018-09-06T11:31:04.306Z,9.00
2018-09-06T11:33:33.211Z,8.33
2018-09-06T11:36:01.674Z,8.63
2018-09-06T11:38:30.896Z,8.20
2018-09-06T11:40:59.620Z,8.23
2018-09-06T11:43:28.862Z,7.87
2018-09-06T11:45:57.843Z,8.03
2018-09-06T11:48:27.245Z,8.50
2018-09-06T11:50:56.368Z,8.43
2018-09-06T11:53:25.376Z,8.53
2018-09-06T11:55:54.472Z,8.90
2018-09-06T11:58:24.022Z,7.97
2018-09-06T12:00:53.652Z,8.10
2018-09-06T12:03:22.561Z,8.40
2018-09-06T12:05:54.556Z,8.87
2018-09-06T12:08:23.393Z,8.60
2018-09-06T12:10:52.501Z,9.30
2018-09-06T12:13:21.416Z,8.23
2018-09-06T12:15:51.042Z,8.10
2018-09-06T12:18:19.955Z,8.13
2018-09-06T12:20:49.108Z,8.70
2018-09-06T12:23:17.960Z,7.53
2018-09-06T12:25:46.959Z,8.23
2018-09-06T12:28:16.385Z,8.67
2018-09-06T12:30:45.550Z,8.43
2018-09-06T12:33:14.797Z,8.10
2018-09-06T12:35:44.620Z,7.60
2018-09-06T12:38:13.856Z,8.43
2018-09-06T12:40:43.172Z,7.83
2018-09-06T12:43:12.559Z,8.40
2018-09-06T12:45:41.702Z,8.07
2018-09-06T12:48:10.996Z,8.30
2018-09-06T12:50:40.220Z,9.07
2018-09-06T12:53:09.686Z,7.97
2018-09-06T12:55:39.958Z,7.60
2018-09-06T12:58:08.983Z,7.70
2018-09-06T13:00:38.158Z,7.43
2018-09-06T13:03:07.225Z,8.70
2018-09-06T13:05:36.313Z,8.00
2018-09-06T13:08:05.397Z,8.77
2018-09-06T13:10:33.857Z,8.40
2018-09-06T13:13:02.571Z,7.63
2018-09-06T13:15:31.632Z,8.20
2018-09-06T13:18:02.243Z,8.63
2018-09-06T13:20:31.610Z,8.63
2018-09-06T13:23:00.546Z,7.90
2018-09-06T13:25:30.006Z,8.07
2018-09-06T13:28:00.081Z,8.60
2018-09-06T13:30:29.084Z,8.30
2018-09-06T13:32:58.652Z,8.13
2018-09-06T13:35:27.908Z,7.90
2018-09-06T13:37:56.418Z,8.77
2018-09-06T13:40:25.207Z,8.13
2018-09-06T13:42:54.104Z,8.53
2018-09-06T13:45:22.745Z,9.00
2018-09-06T13:47:53.318Z,8.77
2018-09-06T13:50:26.669Z,8.43
2018-09-06T13:52:55.481Z,8.40
2018-09-06T13:55:24.733Z,8.47
2018-09-06T13:57:56.181Z,8.77
2018-09-06T14:00:25.056Z,9.00
2018-09-06T14:02:53.897Z,9.80
2018-09-06T14:05:22.869Z,8.90
2018-09-06T14:07:52.289Z,8.63
2018-09-06T14:10:21.577Z,8.80
2018-09-06T14:12:50.709Z,9.27
2018-09-06T14:15:19.590Z,8.47
2018-09-06T14:17:49.543Z,8.23
2018-09-06T14:20:18.912Z,8.80
2018-09-06T14:22:48.081Z,8.30
2018-09-06T14:25:20.255Z,8.90
2018-09-06T14:27:51.226Z,9.50
2018-09-06T14:30:32.580Z,9.03
2018-09-06T14:33:04.744Z,9.37
2018-09-06T14:35:36.096Z,8.73
2018-09-06T14:38:08.827Z,10.67
2018-09-06T14:40:38.990Z,9.30
2018-09-06T14:43:09.115Z,9.90
2018-09-06T14:45:39.582Z,9.40
2018-09-06T14:48:11.257Z,9.20
2018-09-06T14:50:43.047Z,9.27
2018-09-06T14:53:12.304Z,9.40
2018-09-06T14:55:41.171Z,9.33
2018-09-06T14:58:09.802Z,8.80
2018-09-06T15:00:38.740Z,8.80
2018-09-06T15:03:07.565Z,9.67
2018-09-06T15:05:36.462Z,8.77
2018-09-06T15:08:05.331Z,9.07
2018-09-06T15:10:34.430Z,9.90
2018-09-06T15:13:03.737Z,8.90
2018-09-06T15:15:34.959Z,9.20
2018-09-06T15:18:05.511Z,9.80
2018-09-06T15:20:38.325Z,9.33
2018-09-06T15:23:17.471Z,9.87
2018-09-06T15:25:50.403Z,9.20
2018-09-06T15:28:20.923Z,9.37
2018-09-06T15:30:52.485Z,9.33
2018-09-06T15:33:26.295Z,10.33
2018-09-06T15:35:56.516Z,9.07
2018-09-06T15:38:29.641Z,9.53
2018-09-06T15:41:03.491Z,9.37
2018-09-06T15:43:33.912Z,8.93
2018-09-06T15:46:20.813Z,8.60
2018-09-06T15:49:18.134Z,9.47
2018-09-06T15:52:03.768Z,8.83
2018-09-06T15:54:52.737Z,8.43
2018-09-06T15:57:38.886Z,9.23
2018-09-06T16:04:13.955Z,9.70
2018-09-06T16:06:54.667Z,9.80
2018-09-06T16:12:13.133Z,9.73
2018-09-06T16:14:58.071Z,9.10
2018-09-06T16:17:30.070Z,9.27
2018-09-06T16:20:00.530Z,9.00
2018-09-06T16:22:31.050Z,9.10
2018-09-06T16:25:11.680Z,9.17
2018-09-06T16:27:42.300Z,9.27
2018-09-06T16:30:15.622Z,8.40
2018-09-06T16:32:48.280Z,8.73
2018-09-06T16:35:17.478Z,8.40
2018-09-06T16:37:48.493Z,8.60
2018-09-06T16:40:18.834Z,9.43
2018-09-06T16:42:53.390Z,9.00
2018-09-06T16:45:25.418Z,8.80
2018-09-06T16:47:59.603Z,8.60
2018-09-06T16:53:14.832Z,9.47
2018-09-06T16:55:51.571Z,11.20
2018-09-06T16:58:28.343Z,8.47
2018-09-06T17:01:08.312Z,9.27
2018-09-06T17:03:39.882Z,7.63
2018-09-06T17:06:21.994Z,7.77
2018-09-06T17:09:03.008Z,6.90
2018-09-06T17:11:33.536Z,8.50
2018-09-06T17:14:04.915Z,7.63
2018-09-06T17:16:38.566Z,6.80
2018-09-06T17:19:09.323Z,7.20
2018-09-06T17:21:41.020Z,7.93
2018-09-06T17:24:12.096Z,6.63
2018-09-06T17:26:43.174Z,6.87
2018-09-06T17:29:14.425Z,7.57
2018-09-06T17:31:46.437Z,7.40
2018-09-06T17:34:15.626Z,7.37
2018-09-06T17:36:46.542Z,6.73
2018-09-06T17:39:15.816Z,7.40
2018-09-06T17:41:45.171Z,6.50
2018-09-06T17:44:13.721Z,7.67
2018-09-06T17:46:44.460Z,6.97
2018-09-06T17:49:14.331Z,10.93
2018-09-06T17:51:43.815Z,11.07
2018-09-06T17:54:14.358Z,7.83
2018-09-06T17:56:46.227Z,7.93
2018-09-06T17:59:15.768Z,7.73
2018-09-06T18:01:44.972Z,14.80
2018-09-06T18:04:13.504Z,10.00
2018-09-06T18:06:42.051Z,8.30
2018-09-06T18:09:13.796Z,7.20
2018-09-06T18:11:45.009Z,7.50
2018-09-06T18:14:17.475Z,7.67
2018-09-06T18:16:46.664Z,8.03
2018-09-06T18:19:28.714Z,6.83
2018-09-06T18:21:59.082Z,7.10
2018-09-06T18:24:30.568Z,7.23
2018-09-06T18:27:00.269Z,7.20
2018-09-06T18:29:29.580Z,7.37
2018-09-06T18:31:58.641Z,7.83
2018-09-06T18:34:27.582Z,6.67
2018-09-06T18:36:57.332Z,7.33
2018-09-06T18:39:26.617Z,6.63
2018-09-06T18:41:55.778Z,7.87
2018-09-06T18:44:24.763Z,7.40
2018-09-06T18:46:53.535Z,8.13
2018-09-06T18:49:22.759Z,7.00
2018-09-06T18:51:52.552Z,6.87
2018-09-06T18:54:21.589Z,6.93
2018-09-06T18:56:50.428Z,7.20
2018-09-06T18:59:22.313Z,7.90
2018-09-06T19:01:52.679Z,6.67
2018-09-06T19:04:21.796Z,7.20
2018-09-06T19:06:52.592Z,7.20
2018-09-06T19:09:23.634Z,7.27
2018-09-06T19:11:53.163Z,7.33
2018-09-06T19:14:24.897Z,7.10
2018-09-06T19:16:55.530Z,7.03
2018-09-06T19:19:25.497Z,6.60
2018-09-06T19:21:59.692Z,7.80
2018-09-06T19:24:31.402Z,8.70
2018-09-06T19:27:00.216Z,8.07
2018-09-06T19:29:30.158Z,8.60
2018-09-06T19:32:04.756Z,8.63
2018-09-06T19:34:40.105Z,7.87
2018-09-06T19:37:12.484Z,7.83
2018-09-06T19:39:41.930Z,7.97
2018-09-06T19:42:11.397Z,7.33
2018-09-06T19:44:40.565Z,8.27
2018-09-06T19:47:14.026Z,8.63
2018-09-06T19:49:44.532Z,8.20
2018-09-06T19:52:14.415Z,7.73
2018-09-06T19:54:46.086Z,7.23
2018-09-06T19:57:16.468Z,9.00
2018-09-06T19:59:51.169Z,9.43
2018-09-06T20:02:20.560Z,8.50
2018-09-06T20:05:00.146Z,9.57
2018-09-06T20:07:34.418Z,9.23
2018-09-06T20:10:10.333Z,9.50
2018-09-06T20:12:45.305Z,8.50
2018-09-06T20:15:16.160Z,9.60
2018-09-06T20:17:47.383Z,8.90
2018-09-06T20:20:17.315Z,8.70
2018-09-06T20:22:48.393Z,9.53
2018-09-06T20:25:17.152Z,9.63
2018-09-06T20:27:50.802Z,8.90
2018-09-06T20:30:22.530Z,9.00
2018-09-06T20:32:51.726Z,8.47
2018-09-06T20:35:20.256Z,8.63
2018-09-06T20:37:48.767Z,8.17
2018-09-06T20:40:19.918Z,9.13
2018-09-06T20:42:48.417Z,9.20
2018-09-06T20:45:18.905Z,9.57
2018-09-06T20:47:51.506Z,9.80
2018-09-06T20:50:27.268Z,10.37
2018-09-06T20:55:55.396Z,11.17
2018-09-06T20:58:23.896Z,9.47
2018-09-06T21:00:58.254Z,9.97
2018-09-06T21:03:26.784Z,9.90
2018-09-06T21:05:57.335Z,9.67
2018-09-06T21:08:49.673Z,9.03
2018-09-06T21:11:20.443Z,9.43
2018-09-06T21:13:50.970Z,10.30
2018-09-06T21:16:30.238Z,9.83
2018-09-06T21:19:08.933Z,9.60
2018-09-06T21:21:43.549Z,10.30
2018-09-06T21:24:18.097Z,10.23
2018-09-06T21:26:49.885Z,10.60
2018-09-06T21:29:28.090Z,9.20
2018-09-06T21:34:59.648Z,9.53
2018-09-06T21:37:36.402Z,9.17
2018-09-06T21:42:51.472Z,9.83
2018-09-06T21:45:27.327Z,10.43
2018-09-06T21:48:06.087Z,10.87
2018-09-06T21:50:48.287Z,10.83
2018-09-06T21:53:26.432Z,11.27
2018-09-06T21:55:55.819Z,12.40
2018-09-06T21:58:26.957Z,10.53
2018-09-06T22:01:12.707Z,11.83
2018-09-06T22:03:46.791Z,11.70
2018-09-06T22:06:15.358Z,12.10
2018-09-06T22:08:43.861Z,11.77
2018-09-06T22:11:18.602Z,11.87
2018-09-06T22:13:47.299Z,12.20
2018-09-06T22:16:15.835Z,11.83
2018-09-06T22:18:44.576Z,11.67
2018-09-06T22:21:13.233Z,13.10
2018-09-06T22:23:42.652Z,11.77
2018-09-06T22:26:17.519Z,11.90
2018-09-06T22:28:47.755Z,12.23
2018-09-06T22:31:17.868Z,11.70
2018-09-06T22:33:46.760Z,12.20
2018-09-06T22:36:15.413Z,12.10
2018-09-06T22:38:43.945Z,12.37
2018-09-06T22:41:12.452Z,11.70
2018-09-06T22:43:41.209Z,13.00
2018-09-06T22:46:09.733Z,12.00
2018-09-06T22:48:38.239Z,12.70
2018-09-06T22:51:07.069Z,12.87
2018-09-06T22:53:35.543Z,12.40
2018-09-06T22:56:04.334Z,12.03
2018-09-06T22:58:33.499Z,12.40
2018-09-06T23:01:04.969Z,11.63
2018-09-06T23:03:38.583Z,11.17
2018-09-06T23:06:07.337Z,12.00
2018-09-06T23:08:35.899Z,11.83
2018-09-06T23:11:04.456Z,11.60
2018-09-06T23:13:32.901Z,10.93
2018-09-06T23:16:01.397Z,11.50
2018-09-06T23:18:29.901Z,12.20
2018-09-06T23:20:58.633Z,11.80
2018-09-06T23:23:27.780Z,12.83
2018-09-06T23:25:56.382Z,11.83
2018-09-06T23:28:25.184Z,11.13
2018-09-06T23:30:54.439Z,11.50
2018-09-06T23:33:24.449Z,11.57
2018-09-06T23:35:54.907Z,11.47
2018-09-06T23:38:24.362Z,11.83
2018-09-06T23:40:53.835Z,11.60
2018-09-06T23:43:23.278Z,10.80
2018-09-06T23:45:54.038Z,11.90
2018-09-06T23:48:24.835Z,12.07
2018-09-06T23:50:54.181Z,10.90
2018-09-06T23:53:22.748Z,11.33
2018-09-06T23:55:51.682Z,10.93
2018-09-06T23:58:20.508Z,12.10
